sensor_id;sensor_type;location;lat;lon;timestamp;temperature;humidity
75931;DHT22;64609;47.052;15.462;2023-01-25T00:02:07;8.70;79.80
75931;DHT22;64609;47.052;15.462;2023-01-25T00:04:33;8.60;79.50
75931;DHT22;64609;47.052;15.462;2023-01-25T00:06:58;8.60;79.80
75931;DHT22;64609;47.052;15.462;2023-01-25T00:09:26;8.60;79.70
75931;DHT22;64609;47.052;15.462;2023-01-25T00:11:52;8.60;79.70
75931;DHT22;64609;47.052;15.462;2023-01-25T00:14:20;8.50;79.50
75931;DHT22;64609;47.052;15.462;2023-01-25T00:16:46;8.50;79.70
75931;DHT22;64609;47.052;15.462;2023-01-25T00:19:12;8.60;79.90
75931;DHT22;64609;47.052;15.462;2023-01-25T00:21:38;8.50;79.50
75931;DHT22;64609;47.052;15.462;2023-01-25T00:24:04;8.50;79.50
75931;DHT22;64609;47.052;15.462;2023-01-25T00:26:33;8.50;79.60
75931;DHT22;64609;47.052;15.462;2023-01-25T00:28:59;8.40;79.70
75931;DHT22;64609;47.052;15.462;2023-01-25T00:31:49;8.40;79.60
75931;DHT22;64609;47.052;15.462;2023-01-25T00:39:23;8.40;79.30
75931;DHT22;64609;47.052;15.462;2023-01-25T00:41:49;8.40;79.40
75931;DHT22;64609;47.052;15.462;2023-01-25T00:44:15;8.40;79.40
75931;DHT22;64609;47.052;15.462;2023-01-25T00:46:41;8.30;79.30
75931;DHT22;64609;47.052;15.462;2023-01-25T00:49:19;8.20;79.40
75931;DHT22;64609;47.052;15.462;2023-01-25T00:51:46;8.10;79.70
75931;DHT22;64609;47.052;15.462;2023-01-25T00:54:11;8.10;79.60
75931;DHT22;64609;47.052;15.462;2023-01-25T00:56:37;8.10;79.70
75931;DHT22;64609;47.052;15.462;2023-01-25T00:59:02;8.10;80.10
75931;DHT22;64609;47.052;15.462;2023-01-25T01:01:28;8.10;80.20
75931;DHT22;64609;47.052;15.462;2023-01-25T01:03:54;8.10;80.20
75931;DHT22;64609;47.052;15.462;2023-01-25T01:06:19;8.20;80.00
75931;DHT22;64609;47.052;15.462;2023-01-25T01:08:45;8.20;80.00
75931;DHT22;64609;47.052;15.462;2023-01-25T01:11:11;8.20;79.70
75931;DHT22;64609;47.052;15.462;2023-01-25T01:13:38;8.20;79.90
75931;DHT22;64609;47.052;15.462;2023-01-25T01:16:05;8.20;79.80
75931;DHT22;64609;47.052;15.462;2023-01-25T01:18:34;8.30;79.90
75931;DHT22;64609;47.052;15.462;2023-01-25T01:21:00;8.20;79.90
75931;DHT22;64609;47.052;15.462;2023-01-25T01:23:28;8.30;80.00
75931;DHT22;64609;47.052;15.462;2023-01-25T01:25:53;8.30;79.90
75931;DHT22;64609;47.052;15.462;2023-01-25T01:28:21;8.20;80.00
75931;DHT22;64609;47.052;15.462;2023-01-25T01:30:47;8.30;79.70
75931;DHT22;64609;47.052;15.462;2023-01-25T01:33:12;8.20;79.70
75931;DHT22;64609;47.052;15.462;2023-01-25T01:35:38;8.20;79.80
75931;DHT22;64609;47.052;15.462;2023-01-25T01:38:04;8.20;80.10
75931;DHT22;64609;47.052;15.462;2023-01-25T01:40:29;8.20;80.20
75931;DHT22;64609;47.052;15.462;2023-01-25T01:48:28;8.20;80.10
75931;DHT22;64609;47.052;15.462;2023-01-25T01:51:44;8.20;80.10
75931;DHT22;64609;47.052;15.462;2023-01-25T01:53:49;8.20;80.20
75931;DHT22;64609;47.052;15.462;2023-01-25T01:56:20;8.20;80.60
75931;DHT22;64609;47.052;15.462;2023-01-25T01:58:49;8.30;80.40
75931;DHT22;64609;47.052;15.462;2023-01-25T02:01:15;8.30;79.80
75931;DHT22;64609;47.052;15.462;2023-01-25T02:03:42;8.20;79.40
75931;DHT22;64609;47.052;15.462;2023-01-25T02:06:14;8.20;79.80
75931;DHT22;64609;47.052;15.462;2023-01-25T02:08:41;8.20;79.90
75931;DHT22;64609;47.052;15.462;2023-01-25T02:11:08;8.20;79.70
75931;DHT22;64609;47.052;15.462;2023-01-25T02:13:35;8.20;79.70
75931;DHT22;64609;47.052;15.462;2023-01-25T02:16:02;8.20;80.00
75931;DHT22;64609;47.052;15.462;2023-01-25T02:18:28;8.20;80.20
75931;DHT22;64609;47.052;15.462;2023-01-25T02:20:56;8.20;79.70
75931;DHT22;64609;47.052;15.462;2023-01-25T02:23:48;8.20;79.70
75931;DHT22;64609;47.052;15.462;2023-01-25T02:26:16;8.20;80.20
75931;DHT22;64609;47.052;15.462;2023-01-25T02:31:12;8.20;79.40
75931;DHT22;64609;47.052;15.462;2023-01-25T02:33:37;8.20;79.10
75931;DHT22;64609;47.052;15.462;2023-01-25T02:41:36;8.20;79.70
75931;DHT22;64609;47.052;15.462;2023-01-25T02:44:12;8.20;79.60
75931;DHT22;64609;47.052;15.462;2023-01-25T02:46:39;8.20;79.10
75931;DHT22;64609;47.052;15.462;2023-01-25T02:49:06;8.20;79.30
75931;DHT22;64609;47.052;15.462;2023-01-25T02:51:35;8.20;79.70
75931;DHT22;64609;47.052;15.462;2023-01-25T02:54:02;8.20;79.50
75931;DHT22;64609;47.052;15.462;2023-01-25T02:56:28;8.10;79.10
75931;DHT22;64609;47.052;15.462;2023-01-25T02:58:54;8.10;79.30
75931;DHT22;64609;47.052;15.462;2023-01-25T03:01:20;8.00;79.10
75931;DHT22;64609;47.052;15.462;2023-01-25T03:03:45;8.00;79.30
75931;DHT22;64609;47.052;15.462;2023-01-25T03:06:11;8.00;79.30
75931;DHT22;64609;47.052;15.462;2023-01-25T03:08:37;8.00;79.10
75931;DHT22;64609;47.052;15.462;2023-01-25T03:11:03;8.00;78.90
75931;DHT22;64609;47.052;15.462;2023-01-25T03:13:29;7.90;78.90
75931;DHT22;64609;47.052;15.462;2023-01-25T03:16:04;7.90;78.80
75931;DHT22;64609;47.052;15.462;2023-01-25T03:18:30;7.80;79.10
75931;DHT22;64609;47.052;15.462;2023-01-25T03:20:55;7.70;79.30
75931;DHT22;64609;47.052;15.462;2023-01-25T03:23:23;7.70;79.40
75931;DHT22;64609;47.052;15.462;2023-01-25T03:25:49;7.70;79.40
75931;DHT22;64609;47.052;15.462;2023-01-25T03:28:14;7.70;79.60
75931;DHT22;64609;47.052;15.462;2023-01-25T03:30:40;7.70;79.70
75931;DHT22;64609;47.052;15.462;2023-01-25T03:33:06;7.70;79.70
75931;DHT22;64609;47.052;15.462;2023-01-25T03:35:32;7.70;79.70
75931;DHT22;64609;47.052;15.462;2023-01-25T03:37:58;7.80;79.70
75931;DHT22;64609;47.052;15.462;2023-01-25T03:40:26;7.80;79.60
75931;DHT22;64609;47.052;15.462;2023-01-25T03:42:51;7.80;79.60
75931;DHT22;64609;47.052;15.462;2023-01-25T03:45:18;7.80;79.30
75931;DHT22;64609;47.052;15.462;2023-01-25T03:47:43;7.70;79.10
75931;DHT22;64609;47.052;15.462;2023-01-25T03:50:09;7.70;79.50
75931;DHT22;64609;47.052;15.462;2023-01-25T03:52:35;7.70;79.50
75931;DHT22;64609;47.052;15.462;2023-01-25T03:55:05;7.70;79.40
75931;DHT22;64609;47.052;15.462;2023-01-25T03:57:31;7.60;79.40
75931;DHT22;64609;47.052;15.462;2023-01-25T03:59:56;7.60;79.30
75931;DHT22;64609;47.052;15.462;2023-01-25T04:02:22;7.60;79.40
75931;DHT22;64609;47.052;15.462;2023-01-25T04:04:50;7.60;79.30
75931;DHT22;64609;47.052;15.462;2023-01-25T04:07:15;7.60;79.30
75931;DHT22;64609;47.052;15.462;2023-01-25T04:09:41;7.60;79.30
75931;DHT22;64609;47.052;15.462;2023-01-25T04:12:06;7.60;79.30
75931;DHT22;64609;47.052;15.462;2023-01-25T04:14:32;7.60;79.50
75931;DHT22;64609;47.052;15.462;2023-01-25T04:16:58;7.60;79.10
75931;DHT22;64609;47.052;15.462;2023-01-25T04:19:23;7.50;79.20
75931;DHT22;64609;47.052;15.462;2023-01-25T04:21:49;7.50;79.50
75931;DHT22;64609;47.052;15.462;2023-01-25T04:24:14;7.60;80.40
75931;DHT22;64609;47.052;15.462;2023-01-25T04:26:40;7.60;79.40
75931;DHT22;64609;47.052;15.462;2023-01-25T04:29:06;7.60;79.70
75931;DHT22;64609;47.052;15.462;2023-01-25T04:31:31;7.50;79.10
75931;DHT22;64609;47.052;15.462;2023-01-25T04:33:57;7.50;79.30
75931;DHT22;64609;47.052;15.462;2023-01-25T04:36:22;7.50;79.30
75931;DHT22;64609;47.052;15.462;2023-01-25T04:38:48;7.50;79.20
75931;DHT22;64609;47.052;15.462;2023-01-25T04:41:14;7.50;79.20
75931;DHT22;64609;47.052;15.462;2023-01-25T04:43:39;7.50;79.60
75931;DHT22;64609;47.052;15.462;2023-01-25T04:46:05;7.40;79.20
75931;DHT22;64609;47.052;15.462;2023-01-25T04:48:31;7.40;79.50
75931;DHT22;64609;47.052;15.462;2023-01-25T04:50:57;7.40;79.70
75931;DHT22;64609;47.052;15.462;2023-01-25T04:53:22;7.40;79.50
75931;DHT22;64609;47.052;15.462;2023-01-25T04:55:48;7.40;80.00
75931;DHT22;64609;47.052;15.462;2023-01-25T04:58:14;7.50;80.20
75931;DHT22;64609;47.052;15.462;2023-01-25T05:00:40;7.50;80.00
75931;DHT22;64609;47.052;15.462;2023-01-25T05:03:06;7.50;80.10
75931;DHT22;64609;47.052;15.462;2023-01-25T05:05:31;7.50;79.90
75931;DHT22;64609;47.052;15.462;2023-01-25T05:07:59;7.60;80.40
75931;DHT22;64609;47.052;15.462;2023-01-25T05:10:25;7.50;79.70
75931;DHT22;64609;47.052;15.462;2023-01-25T05:12:50;7.50;79.20
75931;DHT22;64609;47.052;15.462;2023-01-25T05:15:16;7.50;79.20
75931;DHT22;64609;47.052;15.462;2023-01-25T05:17:42;7.50;79.80
75931;DHT22;64609;47.052;15.462;2023-01-25T05:20:08;7.50;79.60
75931;DHT22;64609;47.052;15.462;2023-01-25T05:22:34;7.50;79.60
75931;DHT22;64609;47.052;15.462;2023-01-25T05:24:59;7.60;79.70
75931;DHT22;64609;47.052;15.462;2023-01-25T05:27:27;7.60;79.70
75931;DHT22;64609;47.052;15.462;2023-01-25T05:29:53;7.60;79.30
75931;DHT22;64609;47.052;15.462;2023-01-25T05:32:21;7.60;79.30
75931;DHT22;64609;47.052;15.462;2023-01-25T05:34:47;7.60;79.20
75931;DHT22;64609;47.052;15.462;2023-01-25T05:37:15;7.60;79.10
75931;DHT22;64609;47.052;15.462;2023-01-25T05:39:42;7.60;79.00
75931;DHT22;64609;47.052;15.462;2023-01-25T05:42:11;7.50;79.70
75931;DHT22;64609;47.052;15.462;2023-01-25T05:44:37;7.50;79.10
75931;DHT22;64609;47.052;15.462;2023-01-25T05:47:03;7.50;79.30
75931;DHT22;64609;47.052;15.462;2023-01-25T05:49:28;7.50;79.30
75931;DHT22;64609;47.052;15.462;2023-01-25T05:51:54;7.60;79.40
75931;DHT22;64609;47.052;15.462;2023-01-25T05:54:19;7.60;79.30
75931;DHT22;64609;47.052;15.462;2023-01-25T05:56:50;7.60;79.30
75931;DHT22;64609;47.052;15.462;2023-01-25T05:59:16;7.60;79.10
75931;DHT22;64609;47.052;15.462;2023-01-25T06:01:42;7.60;79.50
75931;DHT22;64609;47.052;15.462;2023-01-25T06:04:09;7.60;79.00
75931;DHT22;64609;47.052;15.462;2023-01-25T06:06:37;7.60;79.50
75931;DHT22;64609;47.052;15.462;2023-01-25T06:09:02;7.70;80.30
75931;DHT22;64609;47.052;15.462;2023-01-25T06:11:28;7.70;79.50
75931;DHT22;64609;47.052;15.462;2023-01-25T06:13:54;7.80;79.80
75931;DHT22;64609;47.052;15.462;2023-01-25T06:16:19;7.80;79.30
75931;DHT22;64609;47.052;15.462;2023-01-25T06:18:45;7.80;78.90
75931;DHT22;64609;47.052;15.462;2023-01-25T06:21:11;7.80;78.70
75931;DHT22;64609;47.052;15.462;2023-01-25T06:23:38;7.80;78.70
75931;DHT22;64609;47.052;15.462;2023-01-25T06:26:11;7.80;78.60
75931;DHT22;64609;47.052;15.462;2023-01-25T06:28:38;7.70;78.70
75931;DHT22;64609;47.052;15.462;2023-01-25T06:31:15;7.70;79.10
75931;DHT22;64609;47.052;15.462;2023-01-25T06:33:42;7.80;79.10
75931;DHT22;64609;47.052;15.462;2023-01-25T06:36:13;7.80;78.70
75931;DHT22;64609;47.052;15.462;2023-01-25T06:38:39;7.80;78.60
75931;DHT22;64609;47.052;15.462;2023-01-25T06:41:06;7.70;78.50
75931;DHT22;64609;47.052;15.462;2023-01-25T06:43:33;7.70;78.40
75931;DHT22;64609;47.052;15.462;2023-01-25T06:46:00;7.70;78.20
75931;DHT22;64609;47.052;15.462;2023-01-25T06:48:28;7.70;78.60
75931;DHT22;64609;47.052;15.462;2023-01-25T06:50:58;7.70;78.30
75931;DHT22;64609;47.052;15.462;2023-01-25T06:53:30;7.80;78.30
75931;DHT22;64609;47.052;15.462;2023-01-25T06:55:57;7.80;78.20
75931;DHT22;64609;47.052;15.462;2023-01-25T06:58:24;7.80;78.10
75931;DHT22;64609;47.052;15.462;2023-01-25T07:00:49;7.90;78.10
75931;DHT22;64609;47.052;15.462;2023-01-25T07:03:15;7.90;77.80
75931;DHT22;64609;47.052;15.462;2023-01-25T07:05:40;7.90;77.80
75931;DHT22;64609;47.052;15.462;2023-01-25T07:08:06;8.00;78.20
75931;DHT22;64609;47.052;15.462;2023-01-25T07:10:32;8.00;78.50
75931;DHT22;64609;47.052;15.462;2023-01-25T07:12:57;8.00;78.10
75931;DHT22;64609;47.052;15.462;2023-01-25T07:15:25;8.00;77.80
75931;DHT22;64609;47.052;15.462;2023-01-25T07:17:51;8.00;77.70
75931;DHT22;64609;47.052;15.462;2023-01-25T07:20:16;8.00;77.80
75931;DHT22;64609;47.052;15.462;2023-01-25T07:22:42;8.00;78.30
75931;DHT22;64609;47.052;15.462;2023-01-25T07:25:08;7.90;77.40
75931;DHT22;64609;47.052;15.462;2023-01-25T07:27:34;8.00;78.30
75931;DHT22;64609;47.052;15.462;2023-01-25T07:30:00;8.00;78.20
75931;DHT22;64609;47.052;15.462;2023-01-25T07:32:27;8.00;78.30
75931;DHT22;64609;47.052;15.462;2023-01-25T07:34:53;8.10;78.30
75931;DHT22;64609;47.052;15.462;2023-01-25T07:37:18;8.00;78.00
75931;DHT22;64609;47.052;15.462;2023-01-25T07:39:45;8.10;77.90
75931;DHT22;64609;47.052;15.462;2023-01-25T07:42:14;8.10;77.80
75931;DHT22;64609;47.052;15.462;2023-01-25T07:44:40;8.10;77.50
75931;DHT22;64609;47.052;15.462;2023-01-25T07:47:06;8.10;77.90
75931;DHT22;64609;47.052;15.462;2023-01-25T07:49:32;8.10;77.90
75931;DHT22;64609;47.052;15.462;2023-01-25T07:51:57;8.10;77.70
75931;DHT22;64609;47.052;15.462;2023-01-25T07:54:23;8.10;77.30
75931;DHT22;64609;47.052;15.462;2023-01-25T07:56:49;8.00;76.20
75931;DHT22;64609;47.052;15.462;2023-01-25T07:59:14;8.00;76.90
75931;DHT22;64609;47.052;15.462;2023-01-25T08:01:40;8.00;77.40
75931;DHT22;64609;47.052;15.462;2023-01-25T08:04:06;8.10;77.90
75931;DHT22;64609;47.052;15.462;2023-01-25T08:06:36;8.10;77.60
75931;DHT22;64609;47.052;15.462;2023-01-25T08:09:11;8.10;77.60
75931;DHT22;64609;47.052;15.462;2023-01-25T08:11:41;8.10;77.70
75931;DHT22;64609;47.052;15.462;2023-01-25T08:14:06;8.10;77.80
75931;DHT22;64609;47.052;15.462;2023-01-25T08:16:33;8.10;77.70
75931;DHT22;64609;47.052;15.462;2023-01-25T08:19:00;8.10;77.30
75931;DHT22;64609;47.052;15.462;2023-01-25T08:21:31;8.10;77.30
75931;DHT22;64609;47.052;15.462;2023-01-25T08:23:58;8.10;77.90
75931;DHT22;64609;47.052;15.462;2023-01-25T08:26:24;8.10;76.90
75931;DHT22;64609;47.052;15.462;2023-01-25T08:28:50;8.10;77.10
75931;DHT22;64609;47.052;15.462;2023-01-25T08:31:20;8.10;76.90
75931;DHT22;64609;47.052;15.462;2023-01-25T08:33:47;8.10;77.00
75931;DHT22;64609;47.052;15.462;2023-01-25T08:36:14;8.10;77.20
75931;DHT22;64609;47.052;15.462;2023-01-25T08:38:41;8.10;77.30
75931;DHT22;64609;47.052;15.462;2023-01-25T08:41:09;8.10;77.70
75931;DHT22;64609;47.052;15.462;2023-01-25T08:43:35;8.10;78.00
75931;DHT22;64609;47.052;15.462;2023-01-25T08:46:01;8.20;77.30
75931;DHT22;64609;47.052;15.462;2023-01-25T08:48:27;8.20;76.70
75931;DHT22;64609;47.052;15.462;2023-01-25T08:50:53;8.20;76.20
75931;DHT22;64609;47.052;15.462;2023-01-25T08:53:21;8.20;76.30
75931;DHT22;64609;47.052;15.462;2023-01-25T08:55:46;8.10;76.20
75931;DHT22;64609;47.052;15.462;2023-01-25T08:58:13;8.10;76.30
75931;DHT22;64609;47.052;15.462;2023-01-25T09:00:40;8.20;76.60
75931;DHT22;64609;47.052;15.462;2023-01-25T09:03:07;8.10;76.30
75931;DHT22;64609;47.052;15.462;2023-01-25T09:05:34;8.10;75.60
75931;DHT22;64609;47.052;15.462;2023-01-25T09:08:01;7.90;75.60
75931;DHT22;64609;47.052;15.462;2023-01-25T09:10:27;7.90;75.90
75931;DHT22;64609;47.052;15.462;2023-01-25T09:12:52;8.00;76.80
75931;DHT22;64609;47.052;15.462;2023-01-25T09:15:18;8.10;77.10
75931;DHT22;64609;47.052;15.462;2023-01-25T09:17:44;8.10;75.50
75931;DHT22;64609;47.052;15.462;2023-01-25T09:20:10;8.10;75.60
75931;DHT22;64609;47.052;15.462;2023-01-25T09:22:40;8.00;75.00
75931;DHT22;64609;47.052;15.462;2023-01-25T09:25:05;7.90;74.50
75931;DHT22;64609;47.052;15.462;2023-01-25T09:27:31;7.90;76.00
75931;DHT22;64609;47.052;15.462;2023-01-25T09:29:59;8.10;75.80
75931;DHT22;64609;47.052;15.462;2023-01-25T09:32:25;8.00;74.90
75931;DHT22;64609;47.052;15.462;2023-01-25T09:34:50;8.10;76.10
75931;DHT22;64609;47.052;15.462;2023-01-25T09:37:16;8.30;76.70
75931;DHT22;64609;47.052;15.462;2023-01-25T09:39:44;8.40;76.60
75931;DHT22;64609;47.052;15.462;2023-01-25T09:42:20;8.50;75.50
75931;DHT22;64609;47.052;15.462;2023-01-25T09:45:52;8.60;75.90
75931;DHT22;64609;47.052;15.462;2023-01-25T09:48:16;8.70;74.90
75931;DHT22;64609;47.052;15.462;2023-01-25T09:53:37;8.90;75.10
75931;DHT22;64609;47.052;15.462;2023-01-25T09:58:50;8.90;74.60
75931;DHT22;64609;47.052;15.462;2023-01-25T10:03:58;8.80;72.80
75931;DHT22;64609;47.052;15.462;2023-01-25T10:06:35;8.80;73.60
75931;DHT22;64609;47.052;15.462;2023-01-25T10:11:46;8.90;74.80
75931;DHT22;64609;47.052;15.462;2023-01-25T10:14:17;8.90;75.00
75931;DHT22;64609;47.052;15.462;2023-01-25T10:16:57;9.00;74.40
75931;DHT22;64609;47.052;15.462;2023-01-25T10:22:19;9.00;74.80
75931;DHT22;64609;47.052;15.462;2023-01-25T10:25:23;9.00;74.20
75931;DHT22;64609;47.052;15.462;2023-01-25T10:32:51;8.90;73.80
75931;DHT22;64609;47.052;15.462;2023-01-25T10:35:21;8.90;73.70
75931;DHT22;64609;47.052;15.462;2023-01-25T10:37:48;9.00;74.00
75931;DHT22;64609;47.052;15.462;2023-01-25T10:42:54;8.90;73.80
75931;DHT22;64609;47.052;15.462;2023-01-25T10:45:20;8.90;74.10
75931;DHT22;64609;47.052;15.462;2023-01-25T10:47:49;8.90;75.00
75931;DHT22;64609;47.052;15.462;2023-01-25T10:53:01;9.00;75.70
75931;DHT22;64609;47.052;15.462;2023-01-25T10:55:27;8.90;75.20
75931;DHT22;64609;47.052;15.462;2023-01-25T10:57:54;8.90;74.70
75931;DHT22;64609;47.052;15.462;2023-01-25T11:00:25;8.90;74.60
75931;DHT22;64609;47.052;15.462;2023-01-25T11:02:54;9.00;74.40
75931;DHT22;64609;47.052;15.462;2023-01-25T11:05:38;9.00;74.50
75931;DHT22;64609;47.052;15.462;2023-01-25T11:08:24;9.00;74.40
75931;DHT22;64609;47.052;15.462;2023-01-25T11:10:51;9.00;74.40
75931;DHT22;64609;47.052;15.462;2023-01-25T11:13:28;9.00;74.00
75931;DHT22;64609;47.052;15.462;2023-01-25T11:18:33;9.00;73.70
75931;DHT22;64609;47.052;15.462;2023-01-25T11:21:17;9.00;73.40
75931;DHT22;64609;47.052;15.462;2023-01-25T11:26:26;9.00;73.40
75931;DHT22;64609;47.052;15.462;2023-01-25T11:29:06;9.00;73.10
75931;DHT22;64609;47.052;15.462;2023-01-25T11:31:32;9.00;73.50
75931;DHT22;64609;47.052;15.462;2023-01-25T11:33:58;9.00;73.80
75931;DHT22;64609;47.052;15.462;2023-01-25T11:42:45;9.10;73.50
75931;DHT22;64609;47.052;15.462;2023-01-25T11:45:25;9.10;73.20
75931;DHT22;64609;47.052;15.462;2023-01-25T11:50:35;8.90;73.50
75931;DHT22;64609;47.052;15.462;2023-01-25T11:56:03;8.90;74.00
75931;DHT22;64609;47.052;15.462;2023-01-25T11:59:01;9.00;73.90
75931;DHT22;64609;47.052;15.462;2023-01-25T12:07:01;8.90;72.70
75931;DHT22;64609;47.052;15.462;2023-01-25T12:12:37;8.80;73.30
75931;DHT22;64609;47.052;15.462;2023-01-25T12:20:39;8.80;73.60
75931;DHT22;64609;47.052;15.462;2023-01-25T12:33:45;8.90;73.00
75931;DHT22;64609;47.052;15.462;2023-01-25T12:36:26;8.90;72.80
75931;DHT22;64609;47.052;15.462;2023-01-25T12:44:22;8.90;73.00
75931;DHT22;64609;47.052;15.462;2023-01-25T12:47:29;8.90;72.80
75931;DHT22;64609;47.052;15.462;2023-01-25T12:50:14;8.80;72.80
75931;DHT22;64609;47.052;15.462;2023-01-25T12:53:34;8.80;72.80
75931;DHT22;64609;47.052;15.462;2023-01-25T12:55:35;8.70;73.10
75931;DHT22;64609;47.052;15.462;2023-01-25T13:01:15;8.70;73.10
75931;DHT22;64609;47.052;15.462;2023-01-25T13:06:58;8.50;73.50
75931;DHT22;64609;47.052;15.462;2023-01-25T13:12:10;8.50;73.50
75931;DHT22;64609;47.052;15.462;2023-01-25T13:14:38;8.40;73.10
75931;DHT22;64609;47.052;15.462;2023-01-25T13:17:11;8.20;73.30
75931;DHT22;64609;47.052;15.462;2023-01-25T13:19:40;8.40;74.40
75931;DHT22;64609;47.052;15.462;2023-01-25T13:22:12;8.50;74.50
75931;DHT22;64609;47.052;15.462;2023-01-25T13:27:29;8.50;74.10
75931;DHT22;64609;47.052;15.462;2023-01-25T13:40:04;8.20;72.60
75931;DHT22;64609;47.052;15.462;2023-01-25T13:42:32;8.10;72.40
75931;DHT22;64609;47.052;15.462;2023-01-25T13:47:32;8.00;72.50
75931;DHT22;64609;47.052;15.462;2023-01-25T13:50:26;8.00;72.80
75931;DHT22;64609;47.052;15.462;2023-01-25T13:53:02;8.00;73.70
75931;DHT22;64609;47.052;15.462;2023-01-25T13:55:37;7.90;72.50
75931;DHT22;64609;47.052;15.462;2023-01-25T13:58:32;8.00;73.40
75931;DHT22;64609;47.052;15.462;2023-01-25T14:01:03;8.00;73.00
75931;DHT22;64609;47.052;15.462;2023-01-25T14:03:42;8.10;73.40
75931;DHT22;64609;47.052;15.462;2023-01-25T14:08:44;8.20;73.10
75931;DHT22;64609;47.052;15.462;2023-01-25T14:11:27;8.10;72.50
75931;DHT22;64609;47.052;15.462;2023-01-25T14:16:24;8.00;72.90
75931;DHT22;64609;47.052;15.462;2023-01-25T14:18:51;8.10;73.50
75931;DHT22;64609;47.052;15.462;2023-01-25T14:21:21;8.10;72.80
75931;DHT22;64609;47.052;15.462;2023-01-25T14:23:47;8.20;72.80
75931;DHT22;64609;47.052;15.462;2023-01-25T14:26:21;8.10;72.60
75931;DHT22;64609;47.052;15.462;2023-01-25T14:28:50;8.10;73.00
75931;DHT22;64609;47.052;15.462;2023-01-25T14:31:25;8.10;73.00
75931;DHT22;64609;47.052;15.462;2023-01-25T14:33:53;8.00;72.10
75931;DHT22;64609;47.052;15.462;2023-01-25T14:36:31;7.80;71.90
75931;DHT22;64609;47.052;15.462;2023-01-25T14:38:58;7.70;72.90
75931;DHT22;64609;47.052;15.462;2023-01-25T14:41:26;7.80;73.40
75931;DHT22;64609;47.052;15.462;2023-01-25T14:43:58;7.90;73.00
75931;DHT22;64609;47.052;15.462;2023-01-25T14:46:33;7.90;73.40
75931;DHT22;64609;47.052;15.462;2023-01-25T14:49:18;8.00;73.50
75931;DHT22;64609;47.052;15.462;2023-01-25T14:52:12;8.00;72.80
75931;DHT22;64609;47.052;15.462;2023-01-25T14:54:53;8.00;73.00
75931;DHT22;64609;47.052;15.462;2023-01-25T14:57:32;8.00;73.00
75931;DHT22;64609;47.052;15.462;2023-01-25T14:59:59;7.90;71.80
75931;DHT22;64609;47.052;15.462;2023-01-25T15:02:38;7.90;72.90
75931;DHT22;64609;47.052;15.462;2023-01-25T15:05:15;7.80;72.60
75931;DHT22;64609;47.052;15.462;2023-01-25T15:10:32;7.90;73.00
75931;DHT22;64609;47.052;15.462;2023-01-25T15:23:44;8.00;72.90
75931;DHT22;64609;47.052;15.462;2023-01-25T15:26:26;8.00;72.30
75931;DHT22;64609;47.052;15.462;2023-01-25T15:28:58;7.90;72.60
75931;DHT22;64609;47.052;15.462;2023-01-25T15:31:31;7.80;72.20
75931;DHT22;64609;47.052;15.462;2023-01-25T15:34:00;7.70;72.90
75931;DHT22;64609;47.052;15.462;2023-01-25T15:36:27;7.70;72.80
75931;DHT22;64609;47.052;15.462;2023-01-25T15:38:53;7.70;73.00
75931;DHT22;64609;47.052;15.462;2023-01-25T15:41:18;7.70;73.30
75931;DHT22;64609;47.052;15.462;2023-01-25T15:43:48;7.50;72.60
75931;DHT22;64609;47.052;15.462;2023-01-25T15:46:27;7.60;73.00
75931;DHT22;64609;47.052;15.462;2023-01-25T15:48:55;7.60;74.20
75931;DHT22;64609;47.052;15.462;2023-01-25T15:51:21;7.50;72.60
75931;DHT22;64609;47.052;15.462;2023-01-25T15:53:47;7.60;73.50
75931;DHT22;64609;47.052;15.462;2023-01-25T15:56:15;7.60;73.50
75931;DHT22;64609;47.052;15.462;2023-01-25T15:58:51;7.70;73.70
75931;DHT22;64609;47.052;15.462;2023-01-25T16:01:17;7.70;73.10
75931;DHT22;64609;47.052;15.462;2023-01-25T16:03:44;7.50;72.00
75931;DHT22;64609;47.052;15.462;2023-01-25T16:06:37;7.40;73.10
75931;DHT22;64609;47.052;15.462;2023-01-25T16:09:22;7.50;73.70
75931;DHT22;64609;47.052;15.462;2023-01-25T16:11:59;7.60;74.00
75931;DHT22;64609;47.052;15.462;2023-01-25T16:14:27;7.50;72.90
75931;DHT22;64609;47.052;15.462;2023-01-25T16:16:56;7.50;73.40
75931;DHT22;64609;47.052;15.462;2023-01-25T16:19:24;7.50;73.70
75931;DHT22;64609;47.052;15.462;2023-01-25T16:21:50;7.50;73.50
75931;DHT22;64609;47.052;15.462;2023-01-25T16:24:16;7.60;73.60
75931;DHT22;64609;47.052;15.462;2023-01-25T16:26:47;7.60;73.60
75931;DHT22;64609;47.052;15.462;2023-01-25T16:29:13;7.50;73.60
75931;DHT22;64609;47.052;15.462;2023-01-25T16:31:39;7.50;74.20
75931;DHT22;64609;47.052;15.462;2023-01-25T16:34:05;7.50;74.40
75931;DHT22;64609;47.052;15.462;2023-01-25T16:36:34;7.60;74.80
75931;DHT22;64609;47.052;15.462;2023-01-25T16:39:15;7.60;74.60
75931;DHT22;64609;47.052;15.462;2023-01-25T16:41:43;7.50;73.90
75931;DHT22;64609;47.052;15.462;2023-01-25T16:44:09;7.50;74.80
75931;DHT22;64609;47.052;15.462;2023-01-25T16:46:35;7.40;74.30
75931;DHT22;64609;47.052;15.462;2023-01-25T16:49:00;7.30;74.80
75931;DHT22;64609;47.052;15.462;2023-01-25T16:51:29;7.40;75.40
75931;DHT22;64609;47.052;15.462;2023-01-25T16:53:56;7.40;75.50
75931;DHT22;64609;47.052;15.462;2023-01-25T16:56:24;7.40;75.70
75931;DHT22;64609;47.052;15.462;2023-01-25T16:58:52;7.50;75.90
75931;DHT22;64609;47.052;15.462;2023-01-25T17:01:19;7.50;75.60
75931;DHT22;64609;47.052;15.462;2023-01-25T17:03:45;7.50;75.90
75931;DHT22;64609;47.052;15.462;2023-01-25T17:06:32;7.50;75.90
75931;DHT22;64609;47.052;15.462;2023-01-25T17:08:59;7.50;75.70
75931;DHT22;64609;47.052;15.462;2023-01-25T17:11:26;7.40;75.70
75931;DHT22;64609;47.052;15.462;2023-01-25T17:13:54;7.50;75.90
75931;DHT22;64609;47.052;15.462;2023-01-25T17:16:24;7.40;75.80
75931;DHT22;64609;47.052;15.462;2023-01-25T17:19:07;7.50;76.30
75931;DHT22;64609;47.052;15.462;2023-01-25T17:21:35;7.50;76.40
75931;DHT22;64609;47.052;15.462;2023-01-25T17:24:01;7.50;76.60
75931;DHT22;64609;47.052;15.462;2023-01-25T17:26:30;7.40;76.60
75931;DHT22;64609;47.052;15.462;2023-01-25T17:28:58;7.50;76.80
75931;DHT22;64609;47.052;15.462;2023-01-25T17:31:32;7.50;76.80
75931;DHT22;64609;47.052;15.462;2023-01-25T17:34:01;7.50;76.70
75931;DHT22;64609;47.052;15.462;2023-01-25T17:36:27;7.50;77.00
75931;DHT22;64609;47.052;15.462;2023-01-25T17:38:53;7.60;77.10
75931;DHT22;64609;47.052;15.462;2023-01-25T17:41:18;7.50;76.80
75931;DHT22;64609;47.052;15.462;2023-01-25T17:43:48;7.60;77.30
75931;DHT22;64609;47.052;15.462;2023-01-25T17:46:23;7.60;76.90
75931;DHT22;64609;47.052;15.462;2023-01-25T17:48:51;7.60;77.70
75931;DHT22;64609;47.052;15.462;2023-01-25T17:51:17;7.50;76.10
75931;DHT22;64609;47.052;15.462;2023-01-25T17:53:43;7.50;76.10
75931;DHT22;64609;47.052;15.462;2023-01-25T17:56:10;7.50;76.00